Po 19. NOV 2018, 15:19:59
Partners: Tenis Info | Live výsledky | Tenis live | KHL.sk | NHL.sk | MyFunbets.com | Šport dnes

Bet365 LIGA - tipovanie pre zábavu s možnosťou vyhrať finančné ceny

# Šport Zápas Začiatok Stávka Zisk
80 Európska liga - Zápas Slavia - Bordeaux 1:0 20.09.2018 21:00 1 @ 2.35 135
79 Európska liga - Zápas Leipzig - Salzburg 2:3 20.09.2018 21:00 1 @ 1.90 -100
78 KHL - Zápas Čerepovec - Din.Minsk 1:4 20.09.2018 18:00 1 @ 2.40 -100
77 1.Česko - Zápas Zlín - Hr.Králové 1:2 20.09.2018 17:30 1 @ 2.35 -100
76 Liga Majstrov - Zápas Š.Doneck - Hoffenheim 2:2 19.09.2018 18:55 1 @ 1.95 -100
75 KHL - Zápas Soči - Jekatěrinburg 1:5 19.09.2018 18:30 2 @ 2.10 110
74 KHL - Zápas Jokerit - Magnitogorsk 5:3 19.09.2018 17:30 1 @ 1.98 98
73 KHL - Zápas Chabarovsk - Slovan Brat. 3:2 19.09.2018 11:30 1 @ 2.02 102
72 Liga Majstrov - 1.polčas Monaco - Atl.Madrid 1:2 18.09.2018 21:00 X @ 2.08 -100
71 KHL - Zápas Jaroslavl - Din.Minsk 1:2 18.09.2018 18:00 1 @ 1.48 -100
70 KHL - Zápas Ufa - Novosibirsk 3:1 18.09.2018 16:00 1 @ 1.55 55
69 KHL - Zápas Barys Astana - Omsk 3:3 18.09.2018 15:30 2 @ 1.85 -100
68 1.Anglicko - Zápas Southampton - Brighton 2:2 17.09.2018 21:00 1 @ 2.05 -100
67 1.Grécko - Zápas Aris Thessal. - Levadiakos 2:0 17.09.2018 18:00 1 @ 1.57 57
66 1.Dánsko - Zápas Aalborg - Vejle 1:1 17.09.2018 19:00 1 @ 1.90 -100
65 KHL - Zápas Jokerit - Tr.Čeljabinsk 8:0 17.09.2018 17:30 1 @ 1.60 60
64 KHL - Zápas Ufa - Nižnekamsk 1:3 16.09.2018 13:30 1 @ 1.72 -100
63 1.Francúzsko - Zápas Bordeaux - Nimes 3:3 16.09.2018 17:00 1 @ 1.91 -100
62 1.Belgicko - Zápas FC Antwerp - Waregem 5:1 16.09.2018 18:00 1 @ 2.02 102
61 1.Anglicko - Zápas Everton - West Ham 1:3 16.09.2018 17:00 1 @ 2.00 -100
60 1.Mexiko - Zápas Querétaro - Puebla 0:1 16.09.2018 00:00 1 @ 2.00 -100
59 1.Nemecko - Zápas Wolfsburg - Hertha 2:2 15.09.2018 15:30 1 @ 2.14 -100
58 1.Francúzsko - Zápas Dijon - Angers 1:3 15.09.2018 20:00 1 @ 2.20 -100
57 KHL - Zápas V.Podolsk - Slovan Brat. 6:4 15.09.2018 16:30 1 @ 1.80 80
56 1.Poľsko - Zápas Lubin - Wroclaw 4:0 14.09.2018 18:00 1 @ 2.30 130
55 1.Španielsko - Zápas Huesca - Vallecano 0:1 14.09.2018 21:00 1 @ 2.20 -100
54 KHL - Zápas Din.Minsk - Soči 1:3 14.09.2018 18:30 1 @ 2.20 -100
53 1.Česko - Zápas Ml.Boleslav - Litvínov 3:4 14.09.2018 17:30 1 @ 2.02 -100
52 1.Nórsko - Zápas Stavanger - Manglerud 2:2 13.09.2018 18:00 1 @ 1.38 -100
51 KHL - Zápas Slovan Brat. - Din.Moskva 3:2 13.09.2018 18:30 2 @ 1.83 -100
50 KHL - Zápas Omsk - Magnitogorsk 0:1 13.09.2018 18:30 1 @ 2.06 -100
49 KHL - Zápas CSKA M. - Čerepovec 1:2 13.09.2018 18:30 1 @ 1.33 -100
48 KHL - Zápas V.Podolsk - Soči 3:1 12.09.2018 18:30 1 @ 2.05 105
47 KHL - Zápas Omsk - Kazaň 1:1 12.09.2018 18:30 1 @ 2.05 -100
46 KHL - Zápas Chabarovsk - Vladivostok 3:1 12.09.2018 11:30 1 @ 1.78 78
45 2.Česko - Zápas Třebíč - Litoměřice 2:1 12.09.2018 17:30 1 @ 2.00 100
44 KHL - Zápas CSKA M. - Jaroslavl 1:3 11.09.2018 18:30 1 @ 1.57 -100
43 Liga národov - Zápas Španielsko - Chorvátsko 6:0 11.09.2018 20:45 1 @ 1.63 63
42 Liga národov - Zápas Fínsko - Estónsko 1:0 11.09.2018 20:45 1 @ 1.57 57
41 2.Švédsko - Zápas Falkenberg - Landskrona 1:2 11.09.2018 18:30 1 @ 1.47 -100
40 1.Brazília - Zápas Atl.Mineiro MG - Atl.Paranaens... 3:1 11.09.2018 01:00 1 @ 1.76 76
39 Priateľské zápasy - Zápas Rusko - Česko 5:1 10.09.2018 18:00 1 @ 1.89 89
38 Liga národov - Zápas Škótsko - Albánsko 2:0 10.09.2018 20:45 1 @ 1.77 77
37 KHL - Zápas Omsk - Nižnekamsk 4:2 10.09.2018 18:00 1 @ 1.65 65
36 Liga národov - Zápas Ukrajina - Slovensko 1:0 09.09.2018 15:00 1 @ 1.91 91
35 1.Brazília - Zápas Am.Mineiro MG - Ceará CE 0:0 09.09.2018 21:00 1 @ 1.93 -100
34 KHL - Zápas Din.Riga - Čerepovec 2:2 09.09.2018 15:00 1 @ 2.58 -100
33 KHL - Zápas N.Novgorod - Barys Astana 5:5 09.09.2018 16:30 1 @ 2.00 -100
32 1.Brazília - Zápas Sao Paulo SP - Bahia BA 1:0 09.09.2018 00:00 1 @ 1.60 60
31 Liga národov - Zápas Luxembursko - Moldavsko 4:0 08.09.2018 20:45 1 @ 2.33 133
30 1.USA - Zápas New York City - Washington 1:1 08.09.2018 22:55 1 @ 1.70 -100
29 1.Uruguay - Zápas Montevideo W. - Fénix 1:1 08.09.2018 23:30 1 @ 1.74 -100
28 Liga národov - Zápas Faerské ost. - Malta 3:1 07.09.2018 20:45 1 @ 1.74 74
27 Liga Majstrov - Zápas Zug - Eisbären 6:1 07.09.2018 19:45 1 @ 1.85 85
26 KHL - Zápas Sp.Moskva - Kunlun 1:2 07.09.2018 18:30 1 @ 1.95 -100
25 KHL - Zápas N.Novgorod - V.Podolsk 4:1 07.09.2018 18:00 1 @ 1.95 95
24 1.Kolumbia - Zápas La Equidad - Independ.M. 1:1 07.09.2018 03:00 1 @ 1.90 -100
23 1.Kolumbia - Zápas Once Caldas - Dep.Cali 3:1 07.09.2018 01:00 1 @ 1.80 80
22 Liga národov - Zápas Slovinsko - Bulharsko 1:2 06.09.2018 20:45 1 @ 2.15 -100
21 KHL - Zápas Din.Moskva - Novosibirsk 6:3 06.09.2018 18:30 1 @ 1.80 80
20 1.Brazília - Zápas Internacional RS - Flamengo RJ 2:1 06.09.2018 02:45 1 @ 2.05 105
19 1.Brazília - Zápas Bahia BA - Sport Recife PE 2:0 06.09.2018 00:30 1 @ 1.68 68
18 KHL - Zápas N.Novgorod - Din.Minsk 3:2 05.09.2018 18:00 1 @ 1.94 94
17 KHL - Zápas Kazaň - V.Podolsk 3:5 05.09.2018 18:00 1 @ 1.62 -100
16 Chicago-dvojhra - Zápas Barthel M. - Zhu L. 2:1 04.09.2018 19:15 2 @ 1.83 -100
15 2.Brazília - Zápas CSA AL - Londrina PR 4:1 05.09.2018 01:30 1 @ 1.85 85
14 KHL - Zápas Jaroslavl - Novosibirsk 5:0 04.09.2018 18:00 1 @ 1.77 77
13 KHL - Zápas Tr.Čeljabinsk - Slovan Brat. 3:0 04.09.2018 16:00 1 @ 1.57 57
12 KHL - Zápas N.Novgorod - St.Petěrburg 4:3 03.09.2018 18:00 2 @ 1.60 -100
11 2.Švédsko - Zápas AFC Eskilstuna - GAIS Göteb. 2:1 03.09.2018 19:00 1 @ 1.72 72
10 2.Španielsko - Zápas Almeria - Málaga 0:1 03.09.2018 21:00 2 @ 2.28 128
9 2.Francúzsko - Zápas Lorient - Grenoble 1:0 03.09.2018 20:45 1 @ 1.92 92
8 1.Rusko - Zápas Dinamo M. - Orenburg 2:0 02.09.2018 15:30 1 @ 1.95 95
7 1.Francúzsko - Zápas Rennes - Bordeaux 2:0 02.09.2018 17:00 1 @ 2.05 105
6 1.Chile - Zápas Antofagasta - Palestino 1:0 02.09.2018 20:00 1 @ 1.92 92
5 1.Česko - Zápas Karviná - Slovácko 2:1 02.09.2018 15:00 1 @ 2.25 125
4 1.Francúzsko - Zápas Dijon - Caen 0:2 01.09.2018 20:00 1 @ 1.90 -100
3 1.Dánsko - Zápas Sönderjyske - Hobro 1:1 01.09.2018 16:00 1 @ 1.75 -100
2 1.Česko - Zápas Opava - Jablonec 2:0 01.09.2018 17:00 2 @ 1.68 -100
1 1.Bolívia - Zápas Royal Pari - Guabira M. 2:1 01.09.2018 23:15 1 @ 1.68 68
Bilancia
 Futbal  Hokej  Tenis Spolu
OK 25 16 0 41
KO 20 18 1 39
Storno 0 0 0 0
Ostatné 0 0 0 0
Vklady 4500 3400 100 8000
Výhry 4759 2941 0 7700
Zisk 259 -459 -100 -300
Yield 5.76 % -13.50 % -100.00 % -3.75 %
NOVINKY / ZAUJÍMAVOSTI
Bet LIGA - november 18
1. pit6 + 1784 b.
2. Mathu42 + 1479 b.
3. lumu + 938 b.
4. hansus82 + 754 b.
5. BEPATAJ + 532 b.
6. Koky + 473 b.
7. silvia7 + 451 b.
8. osino1 + 442 b.
9. zdeno + 415 b.
10. bozenka + 380 b.
11. lubo63 + 323 b.
12. lapis73 + 182 b.
13. mizu2001 + 100 b.
14. matusko22 + 87 b.
15. snowboard + 46 b.
16. amadore77 + 11 b.
17. mmacejka2 -12 b.
18. johniik -20 b.
19. jojino -294 b.
20. vana75 -441 b.
21. Domok -511 b.
22. allldo -520 b.
23. mixman07 -566 b.
24. KUDRNA -643 b.
25. bengov -663 b.
26. tomas777 -740 b.
27. ramstein -831 b.
28. peterpbf -924 b.
29. bzucko -995 b.
30. kitek -1000 b.
Bet LIGA - rok 2018
1. Booker33 + 3163 b.
2. balki29 + 2937 b.
3. Betty5 + 2416 b.
4. BlackDora + 1579 b.
5. Rudanek + 1317 b.
6. malydodko + 1191 b.
7. alewar + 865 b.
8. zzajac + 802 b.
9. peterpbf + 520 b.
10. Batman + 384 b.
11. paceko026 + 334 b.
12. yorker8 + 284 b.
13. zdeno + 277 b.
14. murko93 + 242 b.
15. principal + 241 b.
16. m_z_x + 213 b.
17. Bukz + 170 b.
18. milos610 + 149 b.
19. amadore77 + 107 b.
20. ludkun635 + 84 b.
21. skell + 76 b.
22. luftwach + 75 b.
23. wotan52 -22 b.
24. Mathu42 -22 b.
25. dusan56 -59 b.
26. johniik -103 b.
27. jojino -110 b.
28. Vitto -133 b.
29. dany2312 -140 b.
30. bajonik -152 b.